Time;durP1;ratioP1;P1;durP2;ratioP2;P2;SDS_P1;SDS_P2;PMS_P1;PMS_P2;Temp;Humidity;BMP_temperature;BMP_pressure;BME280_temperature;BME280_humidity;BME280_pressure;Samples;Min_cycle;Max_cycle;Signal;HPM_P1;HPM_P2
2021/05/03 00:01:20;;;;;;;1.90;0.90;;;;;;;4.07;82.58;99740.82;106007;1104;78548;-61
2021/05/03 00:03:25;;;;;;;2.10;1.00;;;;;;;4.09;82.57;99746.02;106033;1105;76936;-72
2021/05/03 00:05:30;;;;;;;1.70;1.10;;;;;;;3.95;82.78;99747.49;106068;1104;77593;-72
2021/05/03 00:07:35;;;;;;;1.90;1.20;;;;;;;3.97;82.50;99745.48;106038;1104;77711;-61
2021/05/03 00:09:40;;;;;;;1.70;0.90;;;;;;;3.96;82.34;99753.65;106046;1104;78531;-61
2021/05/03 00:11:45;;;;;;;1.20;0.90;;;;;;;3.94;82.67;99766.34;106046;1099;79075;-71
2021/05/03 00:13:50;;;;;;;1.70;1.20;;;;;;;3.99;82.59;99756.84;106022;1104;78481;-72
2021/05/03 00:15:59;;;;;;;2.50;1.20;;;;;;;3.99;82.43;99748.82;106024;1104;77733;-71
2021/05/03 00:18:04;;;;;;;2.30;1.30;;;;;;;3.99;82.47;99758.67;106038;1104;76991;-62
2021/05/03 00:20:11;;;;;;;1.70;1.10;;;;;;;4.02;82.57;99759.19;106041;1104;78448;-62
2021/05/03 00:22:16;;;;;;;2.60;1.30;;;;;;;4.06;82.28;99757.88;106051;1104;77012;-71
2021/05/03 00:24:21;;;;;;;2.20;1.40;;;;;;;4.04;82.23;99762.52;106019;1104;77474;-72
2021/05/03 00:26:26;;;;;;;3.00;1.60;;;;;;;4.09;82.38;99776.23;106024;1104;78916;-72
2021/05/03 00:28:31;;;;;;;2.40;1.70;;;;;;;4.12;82.50;99767.89;106039;1105;77550;-72
2021/05/03 00:30:37;;;;;;;1.90;1.60;;;;;;;4.13;82.23;99769.57;106047;1104;78897;-72
2021/05/03 00:32:45;;;;;;;2.40;1.60;;;;;;;4.13;82.11;99777.59;106047;1104;78224;-61
2021/05/03 00:34:52;;;;;;;2.10;1.50;;;;;;;4.08;82.29;99779.92;106037;1104;78451;-61
2021/05/03 00:36:57;;;;;;;2.00;1.30;;;;;;;4.09;82.11;99781.58;106051;1098;76949;-62
2021/05/03 00:39:02;;;;;;;2.70;1.60;;;;;;;4.12;82.30;99781.25;106054;1104;76950;-61
2021/05/03 00:41:07;;;;;;;1.90;1.70;;;;;;;4.13;82.11;99785.61;106050;1104;77007;-62
2021/05/03 00:43:18;;;;;;;1.80;1.40;;;;;;;4.10;82.31;99788.61;106044;1104;77508;-62
2021/05/03 00:45:23;;;;;;;3.20;1.50;;;;;;;4.10;82.28;99795.78;106033;1105;78580;-62
2021/05/03 00:47:29;;;;;;;3.00;1.80;;;;;;;4.09;82.39;99794.94;106030;1104;78739;-71
2021/05/03 00:49:37;;;;;;;2.10;1.60;;;;;;;4.12;82.31;99802.63;106037;1104;79685;-71
2021/05/03 00:51:42;;;;;;;2.50;1.50;;;;;;;4.16;82.16;99797.81;106036;1104;77409;-71
2021/05/03 00:53:51;;;;;;;2.40;1.70;;;;;;;4.19;82.07;99802.83;106026;1104;78390;-75
2021/05/03 00:55:56;;;;;;;3.00;1.60;;;;;;;4.15;81.99;99802.31;106023;1104;78159;-75
2021/05/03 00:58:05;;;;;;;3.40;1.70;;;;;;;4.20;81.90;99815.20;106040;1104;77427;-62
2021/05/03 01:00:14;;;;;;;2.30;1.50;;;;;;;4.18;82.02;99812.68;106018;1104;78641;-62
2021/05/03 01:02:19;;;;;;;2.10;1.40;;;;;;;4.18;81.85;99814.52;106071;1104;77893;-62
2021/05/03 01:04:27;;;;;;;2.10;1.60;;;;;;;4.17;82.03;99813.67;106059;1104;78904;-62
2021/05/03 01:06:33;;;;;;;1.60;1.30;;;;;;;4.15;81.96;99822.85;106027;1104;76947;-75
2021/05/03 01:08:41;;;;;;;1.90;1.30;;;;;;;4.16;81.80;99829.88;106062;1104;77893;-75
2021/05/03 01:10:46;;;;;;;3.60;1.30;;;;;;;4.14;81.79;99821.20;106025;1104;77711;-74
2021/05/03 01:12:52;;;;;;;2.20;1.70;;;;;;;4.17;81.78;99832.38;106042;1104;77120;-70
2021/05/03 01:14:57;;;;;;;2.10;1.50;;;;;;;4.24;81.74;99823.72;106042;1104;79497;-70
2021/05/03 01:17:03;;;;;;;4.60;2.40;;;;;;;4.22;81.76;99839.09;106046;1104;78088;-62
2021/05/03 01:19:07;;;;;;;2.30;1.20;;;;;;;4.23;81.65;99838.91;106032;1104;77152;-62
2021/05/03 01:21:21;;;;;;;2.40;1.30;;;;;;;4.18;81.52;99834.06;106042;1104;77481;-62
2021/05/03 01:23:26;;;;;;;1.80;1.40;;;;;;;4.19;81.73;99834.91;106036;1104;78307;-62
2021/05/03 01:25:34;;;;;;;2.80;1.60;;;;;;;4.20;81.41;99833.92;106018;1104;78799;-62
2021/05/03 01:27:39;;;;;;;2.40;1.90;;;;;;;4.17;81.53;99843.07;106051;1104;78615;-70
2021/05/03 01:29:47;;;;;;;3.40;2.30;;;;;;;4.18;81.58;99844.76;106038;1104;78841;-70
2021/05/03 01:31:54;;;;;;;4.00;2.80;;;;;;;4.21;81.40;99835.57;106079;1098;78740;-62
2021/05/03 01:34:05;;;;;;;3.30;2.30;;;;;;;4.20;81.52;99841.94;106045;1105;79368;-62
2021/05/03 01:36:10;;;;;;;3.80;2.30;;;;;;;4.23;81.17;99854.14;106025;1104;77827;-62
2021/05/03 01:38:17;;;;;;;2.40;1.50;;;;;;;4.22;81.25;99844.44;106013;1099;78231;-70
2021/05/03 01:40:23;;;;;;;3.50;1.90;;;;;;;4.22;81.25;99849.78;106034;1104;78887;-70
2021/05/03 01:42:28;;;;;;;2.00;1.70;;;;;;;4.22;81.20;99860.48;106030;1104;78918;-62
2021/05/03 01:44:34;;;;;;;4.30;1.80;;;;;;;4.17;81.29;99856.44;106066;1104;78858;-62
2021/05/03 01:46:39;;;;;;;3.40;2.10;;;;;;;4.19;81.20;99850.95;106060;1104;77346;-68
2021/05/03 01:48:44;;;;;;;3.40;2.20;;;;;;;4.15;81.17;99854.92;106059;1104;78691;-70
2021/05/03 01:50:53;;;;;;;2.40;1.60;;;;;;;4.14;81.19;99859.46;106025;1104;78482;-70
2021/05/03 01:52:59;;;;;;;2.90;1.80;;;;;;;4.17;81.07;99858.30;106043;1104;78121;-59
2021/05/03 01:55:05;;;;;;;3.20;1.80;;;;;;;4.23;81.22;99862.16;106025;1105;77298;-60
2021/05/03 01:57:15;;;;;;;2.20;2.00;;;;;;;4.25;81.19;99865.50;106054;1104;77403;-70
2021/05/03 01:59:21;;;;;;;3.10;1.70;;;;;;;4.21;81.31;99866.81;106018;1104;77269;-70
2021/05/03 02:01:26;;;;;;;2.20;1.70;;;;;;;4.18;81.23;99862.63;106026;1104;78285;-60
2021/05/03 02:03:31;;;;;;;2.20;1.70;;;;;;;4.14;81.08;99872.83;106028;1104;79410;-59
2021/05/03 02:05:36;;;;;;;2.50;1.70;;;;;;;4.21;80.98;99873.00;106022;1104;78682;-59
2021/05/03 02:07:41;;;;;;;2.30;1.80;;;;;;;4.21;81.12;99866.81;106025;1104;79154;-70
2021/05/03 02:09:47;;;;;;;2.70;1.70;;;;;;;4.25;81.29;99871.69;106026;1104;80294;-70
2021/05/03 02:11:55;;;;;;;2.00;1.50;;;;;;;4.23;81.03;99867.51;106056;1104;78015;-71
2021/05/03 02:14:00;;;;;;;3.30;2.00;;;;;;;4.28;81.11;99879.39;106022;1105;78628;-70
2021/05/03 02:16:07;;;;;;;3.90;1.70;;;;;;;4.30;81.07;99879.22;106048;1104;78716;-70
2021/05/03 02:18:12;;;;;;;2.20;1.80;;;;;;;4.30;81.10;99882.73;106045;1104;78489;-59
2021/05/03 02:20:18;;;;;;;2.10;1.60;;;;;;;4.32;81.22;99882.55;106003;1103;78040;-60
2021/05/03 02:22:26;;;;;;;2.20;1.90;;;;;;;4.38;81.12;99888.10;106035;1104;78512;-71
2021/05/03 02:24:32;;;;;;;2.30;1.90;;;;;;;4.39;81.10;99894.30;106020;1104;78111;-71
2021/05/03 02:26:37;;;;;;;2.60;1.90;;;;;;;4.40;80.96;99895.95;106023;1105;79571;-60
2021/05/03 02:28:45;;;;;;;3.40;1.80;;;;;;;4.38;81.17;99911.33;106026;1104;77698;-60
2021/05/03 02:30:50;;;;;;;2.30;1.70;;;;;;;4.41;81.00;99903.83;106030;1104;77969;-60
2021/05/03 02:32:55;;;;;;;3.60;2.20;;;;;;;4.41;81.08;99919.03;106032;1104;77519;-71
2021/05/03 02:35:00;;;;;;;3.90;2.20;;;;;;;4.46;80.92;99914.87;106008;1104;78472;-70
2021/05/03 02:37:05;;;;;;;3.70;2.30;;;;;;;4.47;80.85;99915.71;106058;1104;77488;-70
2021/05/03 02:39:11;;;;;;;2.90;2.00;;;;;;;4.38;81.15;99917.52;106047;1104;77939;-70
2021/05/03 02:41:19;;;;;;;2.90;1.90;;;;;;;4.42;80.94;99931.41;106047;1104;77397;-71
2021/05/03 02:43:27;;;;;;;2.80;2.20;;;;;;;4.47;80.93;99926.41;106034;1104;78071;-59
2021/05/03 02:45:36;;;;;;;3.70;2.00;;;;;;;4.43;80.95;99928.56;106033;1104;78306;-59
2021/05/03 02:47:41;;;;;;;3.70;2.10;;;;;;;4.42;80.99;99926.06;106065;1104;77417;-59
2021/05/03 02:49:46;;;;;;;4.20;2.60;;;;;;;4.39;80.93;99931.73;106039;1105;78717;-59
2021/05/03 02:51:51;;;;;;;7.00;2.80;;;;;;;4.40;80.79;99944.92;106040;1104;78017;-59
2021/05/03 02:53:56;;;;;;;2.30;2.00;;;;;;;4.39;80.93;99942.42;106039;1104;79121;-59
2021/05/03 02:56:02;;;;;;;3.10;2.50;;;;;;;4.43;80.81;99944.61;106042;1104;77192;-59
2021/05/03 02:58:10;;;;;;;4.30;2.40;;;;;;;4.41;80.93;99945.77;106044;1104;79032;-70
2021/05/03 03:00:21;;;;;;;3.50;2.60;;;;;;;4.39;81.00;99947.77;106041;1104;77198;-70
2021/05/03 03:02:26;;;;;;;3.80;2.50;;;;;;;4.37;80.94;99960.48;106075;1105;76979;-60
2021/05/03 03:04:31;;;;;;;3.00;2.30;;;;;;;4.37;81.11;99950.59;106062;1104;77112;-60
2021/05/03 03:06:36;;;;;;;3.00;2.30;;;;;;;4.33;81.02;99961.78;106019;1104;78659;-60
2021/05/03 03:08:41;;;;;;;5.10;2.00;;;;;;;4.29;81.04;99968.43;106024;1105;78249;-60
2021/05/03 03:10:46;;;;;;;3.00;2.10;;;;;;;4.29;80.95;99971.95;106047;1104;78597;-60
2021/05/03 03:12:51;;;;;;;3.70;2.40;;;;;;;4.33;80.93;99973.31;106034;1105;78427;-70
2021/05/03 03:14:56;;;;;;;4.10;2.30;;;;;;;4.32;81.04;99970.78;106047;1105;76827;-70
2021/05/03 03:17:02;;;;;;;3.90;2.50;;;;;;;4.31;80.76;99975.32;106034;1104;78064;-70
2021/05/03 03:19:07;;;;;;;4.40;2.60;;;;;;;4.34;80.85;99976.84;106017;1104;78862;-70
2021/05/03 03:21:12;;;;;;;2.80;2.10;;;;;;;4.31;80.74;99979.83;106050;1105;78571;-70
2021/05/03 03:23:17;;;;;;;3.60;2.70;;;;;;;4.31;80.98;99977.16;106044;1104;79681;-70
2021/05/03 03:25:23;;;;;;;3.80;2.50;;;;;;;4.31;80.92;99983.34;106020;1104;76872;-71
2021/05/03 03:27:28;;;;;;;2.80;2.40;;;;;;;4.32;80.81;99984.16;106070;1098;78524;-60
2021/05/03 03:29:33;;;;;;;2.70;1.80;;;;;;;4.34;80.91;99987.53;106064;1104;77161;-60
2021/05/03 03:31:38;;;;;;;2.60;2.10;;;;;;;4.35;80.89;99990.03;106038;1104;78485;-60
2021/05/03 03:33:43;;;;;;;4.20;2.30;;;;;;;4.46;80.65;99996.93;106026;1103;79490;-60
2021/05/03 03:35:48;;;;;;;2.90;2.00;;;;;;;4.44;80.72;99998.94;106054;1104;77631;-60
2021/05/03 03:37:53;;;;;;;2.40;1.90;;;;;;;4.47;80.48;99999.47;106043;1104;78588;-71
2021/05/03 03:39:58;;;;;;;4.60;2.30;;;;;;;4.48;80.78;100000.27;106029;1099;78331;-70
2021/05/03 03:42:03;;;;;;;3.50;2.20;;;;;;;4.49;80.68;99997.45;106050;1105;78116;-60
2021/05/03 03:44:09;;;;;;;3.10;2.20;;;;;;;4.49;80.57;100004.64;106045;1104;78488;-60
2021/05/03 03:46:14;;;;;;;3.30;2.20;;;;;;;4.47;80.54;100020.86;106024;1104;76946;-60
2021/05/03 03:48:25;;;;;;;3.60;1.90;;;;;;;4.48;80.68;100016.32;106052;1104;79491;-61
2021/05/03 03:50:30;;;;;;;4.20;2.00;;;;;;;4.54;80.61;100021.03;106044;1104;78468;-61
2021/05/03 03:52:36;;;;;;;2.50;2.00;;;;;;;4.55;80.49;100018.22;106028;1104;78973;-71
2021/05/03 03:54:41;;;;;;;3.10;2.40;;;;;;;4.51;80.59;100027.55;106069;1104;77793;-71
2021/05/03 03:56:46;;;;;;;2.70;2.10;;;;;;;4.53;80.39;100022.87;106045;1104;79577;-71
2021/05/03 03:58:51;;;;;;;3.10;2.00;;;;;;;4.56;80.35;100035.92;106049;1104;77198;-71
2021/05/03 04:00:56;;;;;;;4.30;2.20;;;;;;;4.63;80.30;100036.98;106049;1104;78859;-71
2021/05/03 04:03:04;;;;;;;3.90;2.30;;;;;;;4.66;80.47;100041.17;106055;1104;77041;-71
2021/05/03 04:05:18;;;;;;;3.20;1.90;;;;;;;4.72;80.28;100043.21;106021;1104;77687;-71
2021/05/03 04:07:30;;;;;;;3.10;2.00;;;;;;;4.75;80.50;100043.70;106088;1098;78079;-61
2021/05/03 04:09:40;;;;;;;3.30;2.20;;;;;;;4.82;80.26;100045.74;106034;1105;79447;-61
2021/05/03 04:12:08;;;;;;;3.40;2.10;;;;;;;4.84;80.28;100055.28;106029;1104;78522;-71
2021/05/03 04:21:02;;;;;;;3.70;2.00;;;;;;;4.80;80.37;100056.63;106062;1104;78925;-72
2021/05/03 04:21:42;;;;;;;3.30;2.10;;;;;;;4.98;80.17;100061.86;106029;1104;77451;-71
2021/05/03 04:23:55;;;;;;;3.20;1.90;;;;;;;4.94;80.12;100050.66;106039;1104;78705;-72
2021/05/03 04:26:00;;;;;;;2.90;1.70;;;;;;;4.90;80.19;100060.00;106034;1104;78296;-72
2021/05/03 04:28:07;;;;;;;3.80;1.70;;;;;;;4.93;80.21;100059.68;106039;1105;77340;-61
2021/05/03 04:30:15;;;;;;;3.30;1.50;;;;;;;4.93;80.13;100059.68;106029;1104;77542;-61
2021/05/03 04:32:20;;;;;;;2.40;1.80;;;;;;;4.97;80.12;100058.34;106059;1104;78943;-61
2021/05/03 04:34:28;;;;;;;3.50;2.10;;;;;;;4.99;80.17;100056.36;106055;1104;79109;-61
2021/05/03 04:36:33;;;;;;;3.70;2.20;;;;;;;5.01;80.01;100058.86;106019;1104;78339;-61
2021/05/03 04:38:38;;;;;;;3.50;2.30;;;;;;;5.00;79.92;100060.70;106012;1104;78277;-61
2021/05/03 04:40:46;;;;;;;3.40;2.00;;;;;;;5.02;79.73;100058.72;106025;1100;78339;-61
2021/05/03 04:42:51;;;;;;;3.00;2.30;;;;;;;5.03;79.62;100071.08;106049;1104;77527;-72
2021/05/03 04:44:56;;;;;;;3.60;1.60;;;;;;;5.11;80.01;100073.78;106051;1104;79020;-72
2021/05/03 04:47:01;;;;;;;2.70;1.90;;;;;;;5.19;79.81;100070.31;106038;1104;78673;-61
2021/05/03 04:49:06;;;;;;;3.40;2.00;;;;;;;5.26;79.94;100074.84;106026;1105;77870;-61
2021/05/03 04:51:11;;;;;;;3.10;1.90;;;;;;;5.26;79.77;100082.05;106036;1103;78164;-61
2021/05/03 04:53:16;;;;;;;2.80;1.90;;;;;;;5.25;79.75;100078.52;106032;1105;78569;-71
2021/05/03 04:55:21;;;;;;;3.30;2.20;;;;;;;5.22;79.28;100086.88;106044;1098;78243;-71
2021/05/03 04:57:26;;;;;;;3.50;1.90;;;;;;;5.17;79.54;100086.53;106026;1104;78779;-61
2021/05/03 04:59:31;;;;;;;3.90;1.80;;;;;;;5.22;79.25;100094.06;106059;1105;77997;-61
2021/05/03 05:01:36;;;;;;;2.50;1.70;;;;;;;5.25;79.44;100085.70;106043;1104;77165;-61
2021/05/03 05:03:41;;;;;;;3.40;2.10;;;;;;;5.25;79.47;100091.91;106043;1104;78117;-61
2021/05/03 05:05:49;;;;;;;3.40;2.10;;;;;;;5.25;79.30;100097.27;106019;1105;78139;-61
2021/05/03 05:07:57;;;;;;;5.60;2.50;;;;;;;5.34;79.15;100101.66;106040;1104;77659;-61
2021/05/03 05:10:03;;;;;;;3.80;1.70;;;;;;;5.34;79.17;100098.97;106044;1104;78394;-61
2021/05/03 05:12:09;;;;;;;3.10;1.80;;;;;;;5.38;79.07;100097.63;106049;1104;77988;-61
2021/05/03 05:14:14;;;;;;;3.30;1.70;;;;;;;5.45;78.92;100095.14;106044;1104;77695;-61
2021/05/03 05:16:19;;;;;;;2.60;1.80;;;;;;;5.50;78.88;100100.00;106036;1104;78251;-60
2021/05/03 05:18:24;;;;;;;3.70;2.00;;;;;;;5.49;78.90;100104.55;106049;1104;78805;-77
2021/05/03 05:20:29;;;;;;;3.10;2.00;;;;;;;5.52;78.74;100100.70;106046;1104;78686;-75
2021/05/03 05:22:36;;;;;;;3.10;2.00;;;;;;;5.61;78.72;100108.58;106029;1105;76897;-71
2021/05/03 05:24:41;;;;;;;2.90;2.10;;;;;;;5.61;78.85;100110.41;106029;1104;78487;-71
2021/05/03 05:26:46;;;;;;;3.00;2.30;;;;;;;5.71;78.46;100111.12;106012;1105;78591;-71
2021/05/03 05:28:51;;;;;;;3.90;2.30;;;;;;;5.78;78.76;100109.44;106040;1104;78744;-71
2021/05/03 05:30:56;;;;;;;4.80;2.10;;;;;;;5.77;78.16;100116.63;106046;1104;77204;-71
2021/05/03 05:33:04;;;;;;;4.10;2.10;;;;;;;5.81;78.24;100122.52;106036;1104;78172;-62
2021/05/03 05:35:11;;;;;;;4.60;2.30;;;;;;;5.80;78.08;100118.14;106045;1104;78720;-61
2021/05/03 05:37:16;;;;;;;4.50;2.10;;;;;;;5.80;77.84;100129.70;106043;1104;77483;-62
2021/05/03 05:39:21;;;;;;;2.50;1.90;;;;;;;5.90;78.09;100124.23;106023;1104;79732;-61
2021/05/03 05:41:26;;;;;;;3.90;1.90;;;;;;;5.90;77.78;100126.92;106041;1105;78328;-62
2021/05/03 05:43:32;;;;;;;3.10;2.00;;;;;;;6.02;77.17;100133.61;106044;1104;79626;-62
2021/05/03 05:45:37;;;;;;;3.10;2.10;;;;;;;6.02;77.57;100138.13;106032;1103;78851;-62
2021/05/03 05:47:42;;;;;;;4.10;2.40;;;;;;;6.13;77.50;100133.28;106051;1104;78393;-62
2021/05/03 05:49:47;;;;;;;4.70;2.00;;;;;;;6.19;77.62;100135.30;106033;1104;77741;-62
2021/05/03 05:51:52;;;;;;;2.90;2.00;;;;;;;6.35;77.27;100134.45;106018;1104;78170;-72
2021/05/03 05:53:57;;;;;;;4.00;2.20;;;;;;;6.48;77.02;100132.92;106047;1105;78594;-72
2021/05/03 05:56:03;;;;;;;3.60;2.20;;;;;;;6.55;76.84;100135.78;106037;1104;79471;-72
2021/05/03 05:58:09;;;;;;;2.70;1.90;;;;;;;6.67;77.03;100130.91;106050;1104;78782;-73
2021/05/03 06:00:16;;;;;;;6.50;2.30;;;;;;;6.83;76.70;100128.18;106029;1104;77886;-71
2021/05/03 06:02:21;;;;;;;4.30;2.10;;;;;;;6.91;76.50;100136.21;106039;1105;78819;-61
2021/05/03 06:04:26;;;;;;;3.50;2.30;;;;;;;7.06;76.52;100147.89;106043;1104;77868;-61
2021/05/03 06:06:31;;;;;;;2.90;1.90;;;;;;;7.19;76.44;100145.52;106059;1104;77945;-61
2021/05/03 06:08:37;;;;;;;6.00;2.30;;;;;;;7.29;75.28;100145.30;106025;1104;79704;-62
2021/05/03 06:10:42;;;;;;;3.90;2.20;;;;;;;7.25;75.69;100144.80;106030;1103;77053;-61
2021/05/03 06:12:47;;;;;;;3.30;1.90;;;;;;;7.28;75.27;100146.33;106053;1104;79113;-70
2021/05/03 06:14:53;;;;;;;2.80;1.70;;;;;;;7.23;74.53;100141.45;106055;1104;77400;-70
2021/05/03 06:16:58;;;;;;;2.80;1.60;;;;;;;7.21;74.81;100148.86;106061;1103;79033;-69
2021/05/03 06:19:04;;;;;;;3.10;1.90;;;;;;;7.20;74.53;100147.18;106008;1104;78598;-70
2021/05/03 06:21:10;;;;;;;3.40;1.70;;;;;;;7.24;74.15;100153.05;106002;1104;77990;-71
2021/05/03 06:23:15;;;;;;;3.80;1.90;;;;;;;7.37;74.51;100156.86;106028;1104;77543;-71
2021/05/03 06:25:20;;;;;;;3.20;1.80;;;;;;;7.43;73.44;100158.85;106027;1104;78405;-70
2021/05/03 06:27:25;;;;;;;5.60;2.20;;;;;;;7.54;74.06;100166.52;106054;1098;78238;-70
2021/05/03 06:29:30;;;;;;;5.10;1.90;;;;;;;7.63;72.88;100165.48;106041;1105;77674;-70
2021/05/03 06:31:35;;;;;;;3.00;1.80;;;;;;;7.73;73.30;100170.62;106057;1098;77735;-61
2021/05/03 06:33:40;;;;;;;3.10;2.00;;;;;;;7.70;71.76;100174.50;106007;1104;77993;-61
2021/05/03 06:35:45;;;;;;;5.90;2.30;;;;;;;7.74;72.34;100164.24;106058;1098;78170;-62
2021/05/03 06:37:51;;;;;;;4.20;2.00;;;;;;;7.67;71.92;100172.16;106037;1104;78840;-71
2021/05/03 06:39:59;;;;;;;4.80;2.10;;;;;;;7.72;72.62;100187.75;106038;1104;77090;-72
2021/05/03 06:42:05;;;;;;;3.90;2.10;;;;;;;7.80;72.40;100186.90;106048;1098;77679;-71
2021/05/03 06:44:10;;;;;;;2.50;1.80;;;;;;;7.88;72.38;100202.98;106057;1104;78422;-71
2021/05/03 06:46:18;;;;;;;6.60;1.70;;;;;;;7.81;70.75;100184.02;106018;1104;78192;-71
2021/05/03 06:48:24;;;;;;;3.20;1.80;;;;;;;7.72;70.06;100185.91;106050;1104;78657;-71
2021/05/03 06:50:29;;;;;;;5.00;1.70;;;;;;;7.71;68.88;100189.63;106032;1104;78435;-71
2021/05/03 06:52:37;;;;;;;3.20;1.90;;;;;;;7.52;69.16;100195.44;106035;1105;77018;-71
2021/05/03 06:54:42;;;;;;;3.40;1.80;;;;;;;7.62;69.72;100189.83;106035;1099;78718;-72
2021/05/03 06:56:48;;;;;;;2.70;1.70;;;;;;;7.72;69.33;100196.66;106041;1104;78332;-61
2021/05/03 06:58:56;;;;;;;3.70;1.90;;;;;;;7.75;68.98;100186.59;106046;1104;78554;-61
2021/05/03 07:01:06;;;;;;;3.50;2.30;;;;;;;8.09;69.47;100189.73;106047;1104;78623;-61
2021/05/03 07:03:14;;;;;;;2.50;2.00;;;;;;;8.57;69.18;100186.69;106038;1104;78805;-71
2021/05/03 07:05:20;;;;;;;2.90;1.60;;;;;;;8.90;68.03;100177.28;106032;1104;77877;-71
2021/05/03 07:07:25;;;;;;;3.10;1.80;;;;;;;9.31;67.90;100172.27;106017;1104;77188;-70
2021/05/03 07:09:30;;;;;;;2.40;1.70;;;;;;;9.64;67.90;100172.70;106027;1104;78367;-71
2021/05/03 07:11:40;;;;;;;4.00;1.80;;;;;;;9.68;65.39;100165.08;106051;1104;78773;-70
2021/05/03 07:13:48;;;;;;;3.20;1.90;;;;;;;9.98;66.21;100158.58;106030;1105;78639;-70
2021/05/03 07:15:53;;;;;;;3.60;2.20;;;;;;;10.33;66.03;100165.00;106018;1104;78020;-71
2021/05/03 07:17:58;;;;;;;3.80;1.80;;;;;;;10.61;63.91;100171.26;106041;1104;78358;-61
2021/05/03 07:20:10;;;;;;;2.60;1.60;;;;;;;10.78;64.98;100169.95;106018;1104;78553;-61
2021/05/03 07:22:15;;;;;;;4.10;1.80;;;;;;;11.44;65.19;100173.08;106053;1105;78422;-71
2021/05/03 07:24:23;;;;;;;2.40;1.50;;;;;;;11.65;63.62;100172.95;106006;1105;77963;-70
2021/05/03 07:26:29;;;;;;;3.50;1.80;;;;;;;11.61;63.80;100171.70;106023;1104;77177;-62
2021/05/03 07:28:34;;;;;;;2.70;1.70;;;;;;;11.44;63.43;100181.19;106035;1104;78756;-62
2021/05/03 07:30:42;;;;;;;2.50;1.60;;;;;;;11.27;62.79;100180.67;106013;1104;78190;-62
2021/05/03 07:32:50;;;;;;;2.90;2.00;;;;;;;11.18;61.89;100176.45;106048;1098;78699;-70
2021/05/03 07:34:55;;;;;;;6.00;1.70;;;;;;;11.60;62.16;100180.84;106033;1104;77682;-70
2021/05/03 07:37:02;;;;;;;2.70;1.40;;;;;;;11.95;61.67;100193.30;106043;1105;78255;-70
2021/05/03 07:39:10;;;;;;;2.30;1.50;;;;;;;12.22;59.78;100195.05;106031;1104;77458;-71
2021/05/03 07:41:24;;;;;;;2.00;1.60;;;;;;;12.36;60.11;100190.52;106037;1104;78562;-70
2021/05/03 07:43:29;;;;;;;2.10;1.40;;;;;;;13.01;59.93;100189.70;106025;1104;77595;-62
2021/05/03 07:45:37;;;;;;;3.00;1.20;;;;;;;13.38;58.58;100194.45;106026;1104;77361;-61
2021/05/03 07:47:43;;;;;;;2.60;1.80;;;;;;;13.31;55.86;100187.38;106079;1104;78752;-70
2021/05/03 07:49:48;;;;;;;2.40;1.30;;;;;;;12.79;54.85;100210.77;106033;1104;78465;-71
2021/05/03 07:51:54;;;;;;;2.10;1.60;;;;;;;12.30;56.13;100210.30;106046;1104;77769;-71
2021/05/03 07:54:03;;;;;;;2.50;1.40;;;;;;;11.99;55.79;100209.98;106075;1104;78907;-71
2021/05/03 07:56:14;;;;;;;2.90;1.30;;;;;;;11.77;56.50;100209.27;106029;1104;78804;-70
2021/05/03 07:58:20;;;;;;;2.10;1.30;;;;;;;11.73;56.01;100214.24;106066;1104;77490;-61
2021/05/03 08:00:25;;;;;;;1.90;1.50;;;;;;;11.96;56.89;100224.77;106039;1104;76964;-61
2021/05/03 08:02:30;;;;;;;2.90;1.20;;;;;;;11.93;56.12;100232.44;106031;1104;77365;-62
2021/05/03 08:04:36;;;;;;;2.20;1.40;;;;;;;12.51;56.58;100236.37;106030;1104;78686;-61
2021/05/03 08:06:41;;;;;;;2.60;1.40;;;;;;;12.91;55.33;100229.97;106051;1105;76976;-71
2021/05/03 08:08:47;;;;;;;1.90;1.30;;;;;;;12.83;54.48;100235.56;106038;1099;77369;-71
2021/05/03 08:10:55;;;;;;;2.40;1.40;;;;;;;13.36;55.66;100230.98;106040;1104;78901;-74
2021/05/03 08:13:00;;;;;;;2.90;1.50;;;;;;;13.57;54.08;100234.28;106053;1104;77326;-70
2021/05/03 08:15:14;;;;;;;3.20;1.50;;;;;;;13.46;52.19;100234.92;106047;1104;77637;-72
2021/05/03 08:17:19;;;;;;;2.00;1.20;;;;;;;13.47;54.07;100242.03;106035;1104;76810;-74
2021/05/03 08:19:25;;;;;;;3.00;1.30;;;;;;;13.58;54.28;100244.09;106054;1104;77163;-74
2021/05/03 08:21:30;;;;;;;2.80;1.30;;;;;;;13.75;54.18;100241.76;106042;1105;77496;-61
2021/05/03 08:23:40;;;;;;;2.80;2.00;;;;;;;13.71;53.92;100248.64;106053;1104;77147;-62
2021/05/03 08:25:47;;;;;;;4.00;1.30;;;;;;;13.54;51.15;100248.27;106063;1104;78580;-64
2021/05/03 08:27:52;;;;;;;1.80;1.00;;;;;;;13.55;52.47;100249.95;106039;1105;79588;-71
2021/05/03 08:29:57;;;;;;;2.20;1.00;;;;;;;13.43;49.99;100242.68;106020;1104;77311;-71
2021/05/03 08:32:07;;;;;;;1.80;1.30;;;;;;;13.01;50.62;100262.91;106036;1104;78604;-61
2021/05/03 08:34:15;;;;;;;2.20;1.20;;;;;;;12.79;50.06;100264.14;106015;1105;78095;-61
2021/05/03 08:36:21;;;;;;;1.80;1.20;;;;;;;12.49;51.13;100269.10;106022;1105;78709;-66
2021/05/03 08:38:29;;;;;;;2.60;1.30;;;;;;;12.94;51.31;100286.46;106038;1104;78858;-61
2021/05/03 08:40:35;;;;;;;2.40;1.40;;;;;;;13.04;50.26;100267.92;106034;1104;78766;-61
2021/05/03 08:42:47;;;;;;;2.70;1.10;;;;;;;13.36;50.01;100266.26;106036;1104;78821;-62
2021/05/03 08:45:01;;;;;;;2.40;1.10;;;;;;;13.80;49.84;100276.41;106030;1104;78715;-62
2021/05/03 08:47:07;;;;;;;2.30;1.30;;;;;;;14.07;50.73;100265.23;106034;1101;78486;-61
2021/05/03 08:49:18;;;;;;;1.70;1.20;;;;;;;13.76;50.06;100267.03;106046;1105;77541;-60
2021/05/03 08:51:34;;;;;;;1.90;1.20;;;;;;;14.38;50.95;100267.22;106056;1098;77264;-71
2021/05/03 08:53:42;;;;;;;2.40;1.30;;;;;;;15.31;50.76;100260.06;106043;1104;78109;-71
2021/05/03 08:55:48;;;;;;;2.00;1.20;;;;;;;15.75;48.58;100257.13;106049;1104;79493;-77
2021/05/03 08:58:00;;;;;;;3.70;1.30;;;;;;;15.74;47.11;100265.55;106038;1105;77939;-61
2021/05/03 09:00:12;;;;;;;3.00;1.20;;;;;;;16.48;47.42;100276.97;106025;1104;78507;-60
2021/05/03 09:02:20;;;;;;;1.70;1.10;;;;;;;16.87;47.44;100270.14;106057;1104;78847;-61
2021/05/03 09:04:29;;;;;;;1.30;1.00;;;;;;;17.65;47.02;100268.02;106031;1105;78634;-61
2021/05/03 09:06:34;;;;;;;2.00;0.90;;;;;;;18.56;46.06;100266.39;106066;1105;78428;-60
2021/05/03 09:08:42;;;;;;;2.00;0.90;;;;;;;18.15;43.22;100278.39;106021;1104;78009;-76
2021/05/03 09:10:47;;;;;;;1.80;1.00;;;;;;;18.33;43.91;100271.91;106039;1104;79750;-73
2021/05/03 09:12:53;;;;;;;2.50;1.20;;;;;;;18.09;43.21;100273.89;106031;1104;77547;-59
2021/05/03 09:15:02;;;;;;;10.50;1.70;;;;;;;17.47;41.35;100291.86;106033;1104;77991;-60
2021/05/03 09:17:23;;;;;;;2.30;1.10;;;;;;;16.89;43.68;100278.11;106023;1105;78090;-65
2021/05/03 09:19:29;;;;;;;2.10;1.10;;;;;;;16.08;43.88;100277.70;106053;1103;77615;-62
2021/05/03 09:21:34;;;;;;;1.70;1.20;;;;;;;15.61;44.42;100284.72;106023;1105;77931;-70
2021/05/03 09:24:07;;;;;;;3.30;1.30;;;;;;;15.34;44.18;100289.56;106047;1105;78634;-69
2021/05/03 09:26:28;;;;;;;1.50;1.20;;;;;;;14.93;45.19;100289.26;106061;1098;77651;-69
2021/05/03 09:28:33;;;;;;;1.40;1.00;;;;;;;14.89;45.79;100299.73;106038;1104;78740;-58
2021/05/03 09:30:42;;;;;;;2.40;1.50;;;;;;;15.05;45.55;100295.67;106032;1104;78609;-58
2021/05/03 09:32:47;;;;;;;2.50;1.30;;;;;;;15.25;45.73;100290.88;106020;1104;78208;-70
2021/05/03 09:34:54;;;;;;;2.70;1.40;;;;;;;15.00;46.13;100292.75;106037;1104;77750;-70
2021/05/03 09:37:30;;;;;;;2.60;1.40;;;;;;;14.63;45.27;100303.47;106049;1104;79043;-71
2021/05/03 09:39:35;;;;;;;2.70;1.20;;;;;;;14.54;46.17;100303.93;106038;1104;78063;-70
2021/05/03 09:41:47;;;;;;;1.80;1.30;;;;;;;14.47;45.98;100292.27;106072;1105;77064;-69
2021/05/03 09:43:55;;;;;;;2.50;1.60;;;;;;;14.73;47.01;100303.82;106048;1104;77779;-68
2021/05/03 09:46:01;;;;;;;1.70;1.20;;;;;;;14.78;45.40;100295.84;106059;1098;77734;-70
2021/05/03 09:48:09;;;;;;;2.90;1.30;;;;;;;14.90;47.30;100306.02;106036;1104;78494;-59
2021/05/03 09:50:17;;;;;;;3.30;1.20;;;;;;;14.82;46.64;100303.56;106026;1104;78414;-59
2021/05/03 09:52:24;;;;;;;2.30;1.20;;;;;;;14.48;44.93;100319.22;106045;1104;78821;-68
2021/05/03 09:54:31;;;;;;;2.40;1.40;;;;;;;14.00;46.21;100309.78;106041;1104;77285;-68
2021/05/03 09:57:01;;;;;;;2.10;1.20;;;;;;;13.86;47.42;100319.00;106022;1104;78637;-68